Time,TemperatureF,DewpointF,PressureIn,WindDirection,WindDirectionDegrees,WindSpeedMPH,WindSpeedGustMPH,Humidity,HourlyPrecipIn,Conditions,Clouds,dailyrainin,SolarRadiationWatts/m^2,SoftwareType,DateUTC
2013-07-14 00:00:00,59.0,29.0,-100.00,South,180,1.0,2.0,31,-99.99,,,0.00,0.000000,,2013-07-14 07:00:00,
2013-07-14 00:43:00,59.0,29.0,-100.00,South,180,1.0,2.0,31,-99.99,,,0.00,0.000000,,2013-07-14 07:43:00,
2013-07-14 00:53:00,59.0,29.0,-100.00,South,180,1.0,2.0,31,-99.99,,,0.00,0.000000,,2013-07-14 07:53:00,
2013-07-14 01:00:00,56.0,31.0,-100.00,South,188,1.0,2.0,38,-99.99,,,0.00,0.000000,,2013-07-14 08:00:00,
2013-07-14 01:42:00,56.0,31.0,-100.00,South,188,1.0,2.0,38,-99.99,,,0.00,0.000000,,2013-07-14 08:42:00,
2013-07-14 01:53:00,56.0,31.0,-100.00,South,188,1.0,2.0,38,-99.99,,,0.00,0.000000,,2013-07-14 08:53:00,
2013-07-14 02:00:00,52.0,33.0,-100.00,South,182,1.0,2.0,48,-99.99,,,0.00,0.000000,,2013-07-14 09:00:00,
2013-07-14 02:42:00,52.0,33.0,-100.00,South,182,1.0,2.0,48,-99.99,,,0.00,0.000000,,2013-07-14 09:42:00,
2013-07-14 02:53:00,52.0,33.0,-100.00,South,182,1.0,2.0,48,-99.99,,,0.00,0.000000,,2013-07-14 09:53:00,
2013-07-14 03:00:00,49.0,35.0,-100.00,ESE,109,0.0,1.0,56,-99.99,,,0.00,0.000000,,2013-07-14 10:00:00,
2013-07-14 03:42:00,49.0,35.0,-100.00,ESE,109,0.0,1.0,56,-99.99,,,0.00,0.000000,,2013-07-14 10:42:00,
2013-07-14 03:53:00,49.0,35.0,-100.00,ESE,109,0.0,1.0,56,-99.99,,,0.00,0.000000,,2013-07-14 10:53:00,
2013-07-14 04:00:00,47.0,33.0,-100.00,SE,136,0.0,1.0,56,-99.99,,,0.00,0.000000,,2013-07-14 11:00:00,
2013-07-14 04:43:00,47.0,33.0,-100.00,SE,136,0.0,1.0,56,-99.99,,,0.00,0.000000,,2013-07-14 11:43:00,
2013-07-14 04:53:00,47.0,33.0,-100.00,SE,136,0.0,1.0,56,-99.99,,,0.00,0.000000,,2013-07-14 11:53:00,
2013-07-14 05:00:00,46.0,31.0,-100.00,SSW,204,0.0,1.0,56,-99.99,,,0.00,0.000000,,2013-07-14 12:00:00,
2013-07-14 05:43:00,46.0,31.0,-100.00,SSW,204,0.0,1.0,56,-99.99,,,0.00,0.000000,,2013-07-14 12:43:00,
2013-07-14 05:53:00,46.0,31.0,-100.00,SSW,204,0.0,1.0,56,-99.99,,,0.00,0.000000,,2013-07-14 12:53:00,
2013-07-14 06:00:00,46.0,34.0,-100.00,SSW,205,0.0,2.0,63,-99.99,,,0.00,12.200000,,2013-07-14 13:00:00,
2013-07-14 06:42:00,46.0,34.0,-100.00,SSW,205,0.0,2.0,63,-99.99,,,0.00,12.200000,,2013-07-14 13:42:00,
2013-07-14 06:53:00,46.0,34.0,-100.00,SSW,205,0.0,2.0,63,-99.99,,,0.00,12.200000,,2013-07-14 13:53:00,
2013-07-14 07:00:00,55.0,36.0,-100.00,SW,223,0.0,1.0,47,-99.99,,,0.00,171.889999,,2013-07-14 14:00:00,
2013-07-14 07:43:00,55.0,36.0,-100.00,SW,223,0.0,1.0,47,-99.99,,,0.00,171.889999,,2013-07-14 14:43:00,
2013-07-14 07:53:00,55.0,36.0,-100.00,SW,223,0.0,1.0,47,-99.99,,,0.00,171.889999,,2013-07-14 14:53:00,
2013-07-14 08:00:00,62.0,36.0,-100.00,SSW,201,0.0,2.0,37,-99.99,,,0.00,354.940002,,2013-07-14 15:00:00,
2013-07-14 08:42:00,62.0,36.0,-100.00,SSW,201,0.0,2.0,37,-99.99,,,0.00,354.940002,,2013-07-14 15:42:00,
2013-07-14 08:53:00,62.0,36.0,-100.00,SSW,201,0.0,2.0,37,-99.99,,,0.00,354.940002,,2013-07-14 15:53:00,
2013-07-14 09:00:00,69.0,31.0,-100.00,East,94,1.0,3.0,24,-99.99,,,0.00,541.239990,,2013-07-14 16:00:00,
2013-07-14 09:43:00,69.0,31.0,-100.00,East,94,1.0,3.0,24,-99.99,,,0.00,541.239990,,2013-07-14 16:43:00,
2013-07-14 09:53:00,69.0,31.0,-100.00,East,94,1.0,3.0,24,-99.99,,,0.00,541.239990,,2013-07-14 16:53:00,
2013-07-14 10:00:00,72.0,32.0,-100.00,ESE,107,1.0,4.0,23,-99.99,,,0.00,715.099976,,2013-07-14 17:00:00,
2013-07-14 10:43:00,72.0,32.0,-100.00,ESE,107,1.0,4.0,23,-99.99,,,0.00,715.099976,,2013-07-14 17:43:00,
2013-07-14 10:53:00,72.0,32.0,-100.00,ESE,107,1.0,4.0,23,-99.99,,,0.00,715.099976,,2013-07-14 17:53:00,
2013-07-14 11:00:00,75.0,35.0,-100.00,NNW,331,1.0,4.0,23,-99.99,,,0.00,855.030029,,2013-07-14 18:00:00,
2013-07-14 11:42:00,75.0,35.0,-100.00,NNW,331,1.0,4.0,23,-99.99,,,0.00,855.030029,,2013-07-14 18:42:00,
2013-07-14 11:52:00,75.0,35.0,-100.00,NNW,331,1.0,4.0,23,-99.99,,,0.00,855.030029,,2013-07-14 18:52:00,
2013-07-14 12:00:00,78.0,34.0,-100.00,WNW,288,1.0,4.0,20,-99.99,,,0.00,948.359985,,2013-07-14 19:00:00,
2013-07-14 12:43:00,78.0,34.0,-100.00,WNW,288,1.0,4.0,20,-99.99,,,0.00,948.359985,,2013-07-14 19:43:00,
2013-07-14 12:53:00,78.0,34.0,-100.00,WNW,288,1.0,4.0,20,-99.99,,,0.00,948.359985,,2013-07-14 19:53:00,
2013-07-14 13:00:00,83.0,37.0,-100.00,South,185,4.0,9.0,18,-99.99,,,0.00,989.030029,,2013-07-14 20:00:00,
2013-07-14 13:43:00,83.0,37.0,-100.00,South,185,4.0,9.0,18,-99.99,,,0.00,989.030029,,2013-07-14 20:43:00,
2013-07-14 13:53:00,83.0,37.0,-100.00,South,185,4.0,9.0,18,-99.99,,,0.00,989.030029,,2013-07-14 20:53:00,
2013-07-14 14:00:00,85.0,36.0,-100.00,WSW,244,2.0,10.0,17,-99.99,,,0.00,980.900024,,2013-07-14 21:00:00,
2013-07-14 14:43:00,85.0,36.0,-100.00,WSW,244,2.0,10.0,17,-99.99,,,0.00,980.900024,,2013-07-14 21:43:00,
2013-07-14 14:52:00,85.0,36.0,-100.00,WSW,244,2.0,10.0,17,-99.99,,,0.00,980.900024,,2013-07-14 21:52:00,
2013-07-14 15:00:00,86.0,38.0,-100.00,NNW,332,3.0,9.0,18,-99.99,,,0.00,915.929993,,2013-07-14 22:00:00,
2013-07-14 15:42:00,86.0,38.0,-100.00,NNW,332,3.0,9.0,18,-99.99,,,0.00,915.929993,,2013-07-14 22:42:00,
2013-07-14 15:53:00,86.0,38.0,-100.00,NNW,332,3.0,9.0,18,-99.99,,,0.00,915.929993,,2013-07-14 22:53:00,
2013-07-14 16:00:00,85.0,36.0,-100.00,North,352,3.0,8.0,17,-99.99,,,0.00,794.250000,,2013-07-14 23:00:00,
2013-07-14 16:42:00,85.0,36.0,-100.00,North,352,3.0,8.0,17,-99.99,,,0.00,794.250000,,2013-07-14 23:42:00,
2013-07-14 16:53:00,85.0,36.0,-100.00,North,352,3.0,8.0,17,-99.99,,,0.00,794.250000,,2013-07-14 23:53:00,
2013-07-14 18:00:00,84.0,39.0,-100.00,NNW,345,4.0,13.0,20,-99.99,,,0.00,385.850006,,2013-07-15 01:00:00,
2013-07-14 18:43:00,84.0,39.0,-100.00,NNW,345,4.0,13.0,20,-99.99,,,0.00,385.850006,,2013-07-15 01:43:00,
2013-07-14 18:53:00,84.0,39.0,-100.00,NNW,345,4.0,13.0,20,-99.99,,,0.00,385.850006,,2013-07-15 01:53:00,
2013-07-14 19:00:00,81.0,42.0,-100.00,NNW,335,5.0,13.0,24,-99.99,,,0.00,32.889999,,2013-07-15 02:00:00,
2013-07-14 19:42:00,81.0,42.0,-100.00,NNW,335,5.0,13.0,24,-99.99,,,0.00,32.889999,,2013-07-15 02:42:00,
2013-07-14 19:53:00,81.0,42.0,-100.00,NNW,335,5.0,13.0,24,-99.99,,,0.00,32.889999,,2013-07-15 02:53:00,
2013-07-14 20:00:00,79.0,43.0,-100.00,NW,326,2.0,7.0,28,-99.99,,,0.00,20.690001,,2013-07-15 03:00:00,
2013-07-14 20:42:00,79.0,43.0,-100.00,NW,326,2.0,7.0,28,-99.99,,,0.00,20.690001,,2013-07-15 03:42:00,
2013-07-14 20:53:00,79.0,43.0,-100.00,NW,326,2.0,7.0,28,-99.99,,,0.00,20.690001,,2013-07-15 03:53:00,
2013-07-14 21:00:00,75.0,42.0,-100.00,NW,311,2.0,6.0,30,-99.99,,,0.00,2.670000,,2013-07-15 04:00:00,
2013-07-14 21:42:00,75.0,42.0,-100.00,NW,311,2.0,6.0,30,-99.99,,,0.00,2.670000,,2013-07-15 04:42:00,
2013-07-14 21:53:00,75.0,42.0,-100.00,NW,311,2.0,6.0,30,-99.99,,,0.00,2.670000,,2013-07-15 04:53:00,
2013-07-14 22:00:00,70.0,43.0,-100.00,SSE,154,0.0,1.0,38,-99.99,,,0.00,0.000000,,2013-07-15 05:00:00,
2013-07-14 22:43:00,70.0,43.0,-100.00,SSE,154,0.0,1.0,38,-99.99,,,0.00,0.000000,,2013-07-15 05:43:00,
2013-07-14 22:53:00,70.0,43.0,-100.00,SSE,154,0.0,1.0,38,-99.99,,,0.00,0.000000,,2013-07-15 05:53:00,
2013-07-14 23:00:00,67.0,47.0,-100.00,South,172,1.0,2.0,49,-99.99,,,0.00,0.000000,,2013-07-15 06:00:00,
2013-07-14 23:42:00,67.0,47.0,-100.00,South,172,1.0,2.0,49,-99.99,,,0.00,0.000000,,2013-07-15 06:42:00,
2013-07-14 23:53:00,67.0,47.0,-100.00,South,172,1.0,2.0,49,-99.99,,,0.00,0.000000,,2013-07-15 06:53:00,